Time;durP1;ratioP1;P1;durP2;ratioP2;P2;SDS_P1;SDS_P2;PMS_P1;PMS_P2;Temp;Humidity;BMP_temperature;BMP_pressure;BME280_temperature;BME280_humidity;BME280_pressure;Samples;Min_cycle;Max_cycle;Signal;HPM_P1;HPM_P2
2022/12/27 00:01:25;;;;;;;2.73;1.50;;;9.10;99.90;;;;;;5017124;28;20192;-69
2022/12/27 00:03:51;;;;;;;2.40;1.60;;;9.20;99.90;;;;;;5023240;28;20192;-70
2022/12/27 00:06:20;;;;;;;2.20;1.60;;;9.20;99.90;;;;;;5016967;28;20460;-69
2022/12/27 00:08:46;;;;;;;2.87;1.80;;;9.20;99.90;;;;;;5017533;28;20427;-70
2022/12/27 00:11:14;;;;;;;3.63;1.60;;;9.10;99.90;;;;;;5020661;28;20427;-70
2022/12/27 00:13:40;;;;;;;5.57;1.90;;;9.20;99.90;;;;;;5023499;28;20430;-69
2022/12/27 00:16:09;;;;;;;2.47;1.57;;;9.20;99.90;;;;;;5021208;28;20529;-70
2022/12/27 00:18:35;;;;;;;3.97;1.87;;;9.20;99.90;;;;;;5020775;28;20183;-69
2022/12/27 00:21:02;;;;;;;6.60;2.20;;;9.10;99.90;;;;;;5020516;28;20866;-69
2022/12/27 00:23:31;;;;;;;2.53;1.70;;;9.10;99.90;;;;;;5020161;28;20476;-69
2022/12/27 00:26:02;;;;;;;4.47;1.67;;;9.00;99.90;;;;;;5016999;28;20478;-69
2022/12/27 00:28:32;;;;;;;6.27;2.20;;;9.00;99.90;;;;;;5014551;28;20533;-69
2022/12/27 00:30:58;;;;;;;3.40;1.70;;;8.80;99.90;;;;;;5018121;28;20435;-68
2022/12/27 00:33:24;;;;;;;6.73;1.73;;;8.80;99.90;;;;;;5018434;28;20442;-69
2022/12/27 00:35:49;;;;;;;6.40;2.03;;;8.70;99.90;;;;;;5017819;28;20741;-69
2022/12/27 00:38:15;;;;;;;3.00;1.80;;;8.70;99.90;;;;;;5011918;28;20439;-69
2022/12/27 00:40:41;;;;;;;3.43;1.80;;;8.70;99.90;;;;;;5011790;28;20213;-71
2022/12/27 00:43:07;;;;;;;3.10;1.90;;;8.60;99.90;;;;;;5017470;28;20276;-72
2022/12/27 00:45:32;;;;;;;2.50;1.80;;;8.60;99.90;;;;;;5020977;28;20475;-69
2022/12/27 00:47:58;;;;;;;4.43;1.73;;;8.60;99.90;;;;;;5014392;28;20599;-67
2022/12/27 00:50:24;;;;;;;3.53;2.23;;;8.60;99.90;;;;;;4999537;28;20180;-69
2022/12/27 00:52:50;;;;;;;4.53;1.90;;;8.70;99.90;;;;;;5022462;28;20605;-69
2022/12/27 00:55:15;;;;;;;3.80;1.77;;;8.70;99.90;;;;;;5013854;28;20208;-69
2022/12/27 00:57:41;;;;;;;5.03;3.30;;;8.60;99.90;;;;;;5017280;28;20813;-69
2022/12/27 01:00:07;;;;;;;2.40;1.57;;;8.80;99.90;;;;;;5017591;28;20579;-69
2022/12/27 01:02:33;;;;;;;3.20;1.70;;;8.70;99.90;;;;;;5015583;28;20196;-69
2022/12/27 01:04:58;;;;;;;4.03;1.80;;;8.70;99.90;;;;;;5017737;28;20417;-69
2022/12/27 01:07:24;;;;;;;5.60;1.80;;;8.80;99.90;;;;;;5016602;28;20460;-69
2022/12/27 01:09:49;;;;;;;5.20;1.93;;;8.80;99.90;;;;;;5016084;28;20643;-69
2022/12/27 01:12:15;;;;;;;5.70;1.90;;;8.70;99.90;;;;;;5018663;28;20176;-68
2022/12/27 01:14:41;;;;;;;5.00;2.07;;;8.80;99.90;;;;;;5019265;28;20209;-69
2022/12/27 01:17:07;;;;;;;5.10;1.90;;;8.80;99.90;;;;;;5014967;28;20636;-68
2022/12/27 01:19:35;;;;;;;5.13;1.80;;;8.80;99.90;;;;;;5014561;28;20447;-69
2022/12/27 01:22:01;;;;;;;5.77;1.90;;;8.80;99.90;;;;;;5014959;28;21293;-68
2022/12/27 01:24:26;;;;;;;6.70;2.30;;;8.80;99.90;;;;;;5013661;28;20454;-69
2022/12/27 01:26:52;;;;;;;3.10;1.87;;;8.70;99.90;;;;;;5018432;28;20692;-69
2022/12/27 01:29:17;;;;;;;6.23;1.90;;;8.80;99.90;;;;;;5013547;28;20582;-68
2022/12/27 01:31:43;;;;;;;3.83;1.80;;;8.80;99.90;;;;;;5015053;28;20188;-68
2022/12/27 01:34:08;;;;;;;5.10;2.37;;;8.80;99.90;;;;;;5017636;28;20198;-68
2022/12/27 01:36:34;;;;;;;4.33;2.07;;;8.80;99.90;;;;;;5016352;28;20806;-68
2022/12/27 01:39:00;;;;;;;3.03;1.90;;;8.70;99.90;;;;;;5011792;28;20207;-68
2022/12/27 01:44:42;;;;;;;4.70;2.20;;;8.50;99.90;;;;;;5013329;28;20204;-68
2022/12/27 01:47:35;;;;;;;2.80;1.90;;;8.40;99.90;;;;;;5016451;28;20519;-67
2022/12/27 01:50:10;;;;;;;5.60;2.10;;;8.40;99.90;;;;;;5011539;28;20846;-67
2022/12/27 01:53:02;;;;;;;2.67;1.77;;;8.40;99.90;;;;;;5015136;28;20446;-68
2022/12/27 01:56:01;;;;;;;5.03;2.00;;;8.40;99.90;;;;;;5011625;28;21241;-68
2022/12/27 01:58:45;;;;;;;4.17;1.97;;;8.30;99.90;;;;;;5015876;28;20522;-69
2022/12/27 02:01:16;;;;;;;6.47;2.10;;;8.30;99.90;;;;;;5010907;28;20557;-69
2022/12/27 02:03:47;;;;;;;6.40;2.07;;;8.30;99.90;;;;;;5016430;28;20851;-69
2022/12/27 02:06:14;;;;;;;5.20;1.97;;;8.30;99.90;;;;;;5017052;28;20541;-66
2022/12/27 02:08:47;;;;;;;4.13;2.10;;;8.30;99.90;;;;;;5003332;28;20499;-66
2022/12/27 02:11:13;;;;;;;6.07;1.97;;;8.30;99.90;;;;;;5014520;28;21052;-68
2022/12/27 02:13:44;;;;;;;4.23;2.10;;;8.40;99.90;;;;;;5013294;28;20451;-68
2022/12/27 02:16:16;;;;;;;4.93;1.90;;;8.30;99.90;;;;;;5017447;28;20853;-67
2022/12/27 02:18:42;;;;;;;4.83;1.90;;;8.30;99.90;;;;;;5013314;28;20518;-68
2022/12/27 02:21:53;;;;;;;2.30;1.57;;;8.30;99.90;;;;;;5019732;28;20829;-68
2022/12/27 02:24:43;;;;;;;3.70;2.07;;;8.10;99.90;;;;;;5014069;28;20451;-67
2022/12/27 02:27:25;;;;;;;2.97;1.50;;;8.10;99.90;;;;;;5017788;28;20482;-68
2022/12/27 02:30:06;;;;;;;6.27;1.80;;;8.10;99.90;;;;;;5016452;28;20495;-68
2022/12/27 02:32:53;;;;;;;3.27;2.00;;;8.20;99.90;;;;;;5017093;28;20533;-68
2022/12/27 02:36:02;;;;;;;6.50;2.87;;;8.10;99.90;;;;;;5017050;28;20975;-67
2022/12/27 02:38:31;;;;;;;4.50;2.00;;;8.00;99.90;;;;;;4996395;28;20447;-67
2022/12/27 02:55:41;;;;;;;4.67;1.90;;;7.70;99.90;;;;;;5015258;28;20484;-68
2022/12/27 02:58:34;;;;;;;4.03;2.30;;;7.60;99.90;;;;;;5018187;28;20494;-68
2022/12/27 03:04:39;;;;;;;6.93;2.27;;;7.60;99.90;;;;;;5021258;28;20442;-67
2022/12/27 03:07:19;;;;;;;3.23;2.13;;;7.60;99.90;;;;;;5018766;28;20471;-68
2022/12/27 03:16:15;;;;;;;3.73;2.60;;;7.60;99.90;;;;;;5016552;28;20528;-69
2022/12/27 03:19:09;;;;;;;2.97;2.00;;;7.70;99.90;;;;;;5014888;28;21913;-68
2022/12/27 03:27:21;;;;;;;5.30;2.30;;;7.40;99.90;;;;;;5017450;28;21071;-69
2022/12/27 03:35:32;;;;;;;6.10;2.40;;;7.30;99.90;;;;;;5017079;28;20496;-67
2022/12/27 03:38:02;;;;;;;4.97;2.70;;;7.30;99.90;;;;;;5019346;28;20439;-67
2022/12/27 03:43:37;;;;;;;6.03;2.67;;;7.40;99.90;;;;;;5017290;28;20488;-69
2022/12/27 03:48:57;;;;;;;3.17;2.40;;;7.20;99.90;;;;;;5022388;28;20515;-70
2022/12/27 03:51:25;;;;;;;4.50;2.20;;;7.30;99.90;;;;;;5016575;28;20546;-70
2022/12/27 03:53:56;;;;;;;4.43;2.30;;;7.20;99.90;;;;;;5022231;28;20879;-70
2022/12/27 03:56:21;;;;;;;10.37;2.73;;;7.30;99.90;;;;;;5016558;28;20474;-71
2022/12/27 03:58:47;;;;;;;4.03;2.23;;;7.30;99.90;;;;;;5016142;28;20488;-70
2022/12/27 04:01:13;;;;;;;2.73;2.23;;;7.30;99.90;;;;;;5019864;28;20176;-70
2022/12/27 04:03:38;;;;;;;8.10;2.30;;;7.30;99.90;;;;;;5017847;28;20258;-70
2022/12/27 04:06:04;;;;;;;4.53;2.37;;;7.20;99.90;;;;;;5019230;28;20208;-68
2022/12/27 04:35:51;;;;;;;4.83;2.37;;;7.10;99.90;;;;;;5016892;28;20477;-67
2022/12/27 04:38:16;;;;;;;9.73;2.37;;;7.10;99.90;;;;;;5019472;28;20425;-67
2022/12/27 04:55:02;;;;;;;5.00;2.47;;;7.00;99.90;;;;;;4991994;28;21014;-67
2022/12/27 04:57:27;;;;;;;6.80;2.40;;;7.00;99.90;;;;;;5014244;28;20459;-67
2022/12/27 05:02:37;;;;;;;7.67;2.00;;;7.20;99.90;;;;;;5016331;28;20257;-67
2022/12/27 05:05:03;;;;;;;4.83;2.07;;;7.10;99.90;;;;;;5020503;28;20407;-68
2022/12/27 05:15:41;;;;;;;4.47;2.20;;;7.10;99.90;;;;;;5018244;28;20477;-69
2022/12/27 05:18:06;;;;;;;4.53;2.00;;;7.00;99.90;;;;;;5015816;28;20423;-67
2022/12/27 05:20:35;;;;;;;9.00;2.27;;;7.10;99.90;;;;;;5012182;28;20183;-67
2022/12/27 05:25:45;;;;;;;3.33;1.90;;;7.00;99.90;;;;;;5019594;28;20840;-66
2022/12/27 05:28:11;;;;;;;5.80;2.00;;;7.00;99.90;;;;;;5014797;28;20526;-66
2022/12/27 05:30:40;;;;;;;3.73;2.30;;;6.90;99.90;;;;;;5017516;28;20543;-67
2022/12/27 05:33:06;;;;;;;6.80;2.87;;;7.00;99.90;;;;;;5015700;28;20440;-67
2022/12/27 05:35:35;;;;;;;4.63;2.10;;;7.00;99.90;;;;;;5011847;28;21005;-66
2022/12/27 05:38:01;;;;;;;5.90;2.20;;;7.00;99.90;;;;;;5016498;28;20433;-66
2022/12/27 05:40:27;;;;;;;5.90;2.47;;;6.90;99.90;;;;;;5017323;28;20786;-67
2022/12/27 05:42:53;;;;;;;4.10;2.37;;;6.80;99.90;;;;;;5017326;28;20445;-69
2022/12/27 05:45:19;;;;;;;5.80;2.30;;;6.80;99.90;;;;;;5018836;28;20530;-68
2022/12/27 05:47:45;;;;;;;5.50;2.20;;;6.80;99.90;;;;;;5010745;28;20456;-68
2022/12/27 05:50:11;;;;;;;3.23;2.37;;;6.80;99.90;;;;;;5016908;28;20462;-68
2022/12/27 05:52:36;;;;;;;5.20;2.80;;;6.80;99.90;;;;;;5011314;28;20201;-68
2022/12/27 05:55:03;;;;;;;5.63;2.10;;;6.80;99.90;;;;;;5019546;28;20184;-67
2022/12/27 05:57:28;;;;;;;4.43;2.07;;;6.80;99.90;;;;;;5012687;28;20200;-68
2022/12/27 05:59:54;;;;;;;9.80;2.50;;;6.90;99.90;;;;;;5022504;28;20438;-68
2022/12/27 06:02:19;;;;;;;9.50;2.50;;;6.90;99.90;;;;;;5014773;28;20288;-67
2022/12/27 06:04:45;;;;;;;4.57;2.80;;;6.90;99.90;;;;;;5019714;28;20181;-67
2022/12/27 06:07:12;;;;;;;4.57;2.33;;;6.80;99.90;;;;;;5018941;28;20211;-67
2022/12/27 06:09:38;;;;;;;3.43;2.37;;;6.80;99.90;;;;;;5020329;28;20184;-67
2022/12/27 06:12:04;;;;;;;6.10;2.40;;;6.80;99.90;;;;;;5015379;28;20450;-67
2022/12/27 06:14:29;;;;;;;2.90;2.60;;;6.70;99.90;;;;;;5019631;28;20439;-67
2022/12/27 06:16:55;;;;;;;5.50;2.50;;;6.70;99.90;;;;;;5018443;28;20211;-67
2022/12/27 06:19:20;;;;;;;5.50;2.63;;;6.70;99.90;;;;;;5021548;28;20191;-67
2022/12/27 06:21:46;;;;;;;6.03;2.53;;;6.70;99.90;;;;;;5019879;28;20180;-67
2022/12/27 06:24:12;;;;;;;8.40;2.30;;;6.80;99.90;;;;;;5014168;28;20200;-68
2022/12/27 06:26:37;;;;;;;6.13;2.47;;;6.70;99.90;;;;;;5017634;28;20255;-68
2022/12/27 06:29:03;;;;;;;3.83;2.30;;;6.80;99.90;;;;;;5016285;28;20691;-67
2022/12/27 06:31:28;;;;;;;6.73;2.30;;;6.80;99.90;;;;;;5019498;28;20256;-68
2022/12/27 06:33:54;;;;;;;2.67;2.20;;;6.80;99.90;;;;;;5014281;28;20189;-68
2022/12/27 06:36:23;;;;;;;3.60;2.17;;;6.80;99.90;;;;;;5020396;28;20228;-68
2022/12/27 06:38:48;;;;;;;7.10;2.43;;;6.80;99.90;;;;;;5017980;28;20438;-68
2022/12/27 06:41:16;;;;;;;4.17;2.07;;;6.80;99.90;;;;;;5001593;28;20441;-68
2022/12/27 06:43:42;;;;;;;3.53;2.30;;;6.80;99.90;;;;;;5024351;28;20188;-68
2022/12/27 06:46:14;;;;;;;5.80;4.20;;;6.50;99.90;;;;;;5024741;28;20438;-68
2022/12/27 06:48:40;;;;;;;3.60;2.30;;;6.50;99.90;;;;;;5018325;28;20766;-68
2022/12/27 06:51:07;;;;;;;2.80;1.80;;;6.60;99.90;;;;;;5020600;28;20454;-69
2022/12/27 06:53:35;;;;;;;4.87;2.17;;;6.60;99.90;;;;;;5020180;28;20847;-68
2022/12/27 06:56:15;;;;;;;2.40;2.00;;;6.60;99.90;;;;;;5017411;28;20532;-69
2022/12/27 06:58:41;;;;;;;4.17;2.27;;;6.60;99.90;;;;;;5020890;28;20415;-68
2022/12/27 07:01:08;;;;;;;4.37;2.30;;;6.70;99.90;;;;;;5020680;28;20602;-68
2022/12/27 07:03:34;;;;;;;10.60;2.40;;;6.70;99.90;;;;;;5024189;28;20442;-68
2022/12/27 07:06:04;;;;;;;4.30;2.10;;;6.70;99.90;;;;;;5019007;28;20462;-68
2022/12/27 07:08:29;;;;;;;5.80;2.17;;;6.70;99.90;;;;;;5019340;28;20192;-67
2022/12/27 07:11:04;;;;;;;2.63;2.00;;;6.60;99.90;;;;;;5018861;28;20820;-67
2022/12/27 07:13:33;;;;;;;6.30;2.30;;;6.70;99.90;;;;;;5016890;28;20180;-67
2022/12/27 07:15:59;;;;;;;3.20;1.90;;;6.60;99.90;;;;;;5017154;28;21154;-67
2022/12/27 07:18:24;;;;;;;4.93;2.23;;;6.70;99.90;;;;;;5020129;28;20446;-67
2022/12/27 07:20:50;;;;;;;4.80;2.30;;;6.70;99.90;;;;;;5016337;28;20515;-67
2022/12/27 07:23:15;;;;;;;4.83;2.43;;;6.70;99.90;;;;;;5017799;28;20601;-68
2022/12/27 07:25:41;;;;;;;8.37;2.60;;;6.70;99.90;;;;;;5015628;28;20268;-69
2022/12/27 07:28:06;;;;;;;4.67;2.30;;;6.70;99.90;;;;;;5019700;28;20214;-69
2022/12/27 07:30:32;;;;;;;5.50;1.90;;;6.70;99.90;;;;;;5016128;28;20189;-69
2022/12/27 07:32:58;;;;;;;2.60;1.73;;;6.70;99.90;;;;;;5018226;28;20191;-69
2022/12/27 07:35:23;;;;;;;9.37;3.03;;;6.70;99.90;;;;;;5018025;28;20209;-69
2022/12/27 07:37:49;;;;;;;5.03;2.30;;;6.70;99.90;;;;;;5014838;28;21732;-66
2022/12/27 07:40:14;;;;;;;4.23;1.97;;;6.80;99.90;;;;;;5016420;28;20578;-66
2022/12/27 07:42:40;;;;;;;6.00;2.23;;;6.70;99.90;;;;;;5016689;28;20661;-66
2022/12/27 07:45:06;;;;;;;2.63;1.90;;;6.70;99.90;;;;;;5021528;28;20254;-66
2022/12/27 07:47:32;;;;;;;4.83;4.00;;;6.70;99.90;;;;;;5020960;28;20211;-67
2022/12/27 07:49:57;;;;;;;10.03;2.90;;;6.70;99.90;;;;;;5020249;28;20415;-67
2022/12/27 07:52:23;;;;;;;2.97;2.10;;;6.70;99.90;;;;;;5020413;28;20292;-66
2022/12/27 07:54:48;;;;;;;2.33;1.97;;;6.70;99.90;;;;;;5017085;28;20271;-67
2022/12/27 07:57:14;;;;;;;5.17;2.40;;;6.60;99.90;;;;;;5019486;28;20231;-67
2022/12/27 07:59:39;;;;;;;5.93;2.70;;;6.60;99.90;;;;;;5019280;28;20184;-67
2022/12/27 08:02:05;;;;;;;6.13;3.10;;;6.50;99.90;;;;;;5020837;28;20177;-67
2022/12/27 08:04:34;;;;;;;3.90;2.30;;;6.60;99.90;;;;;;5020454;28;20181;-67
2022/12/27 08:07:04;;;;;;;6.40;2.30;;;6.60;99.90;;;;;;5015906;28;20222;-67
2022/12/27 08:09:34;;;;;;;4.10;2.23;;;6.70;99.90;;;;;;5013024;28;20439;-68
2022/12/27 08:11:59;;;;;;;6.73;2.97;;;6.70;99.90;;;;;;5018847;28;20482;-68
2022/12/27 08:14:25;;;;;;;5.90;2.67;;;6.80;99.90;;;;;;5016154;28;20539;-68
2022/12/27 08:16:51;;;;;;;6.13;2.70;;;6.80;99.90;;;;;;5021734;28;20252;-68
2022/12/27 08:19:16;;;;;;;3.93;2.20;;;6.80;99.90;;;;;;5016891;28;20177;-68
2022/12/27 08:21:42;;;;;;;3.70;2.60;;;6.80;99.90;;;;;;5018206;28;20226;-67
2022/12/27 08:24:07;;;;;;;4.63;2.63;;;6.80;99.90;;;;;;5018992;28;20178;-67
2022/12/27 08:26:33;;;;;;;5.37;2.40;;;6.80;99.90;;;;;;5017228;28;20208;-68
2022/12/27 08:28:58;;;;;;;3.33;2.20;;;6.80;99.90;;;;;;5014027;28;20613;-68
2022/12/27 08:31:24;;;;;;;7.00;2.63;;;6.90;99.90;;;;;;5014805;28;20216;-66
2022/12/27 08:33:50;;;;;;;5.63;2.57;;;6.90;99.90;;;;;;5011423;28;20263;-66
2022/12/27 08:36:15;;;;;;;8.33;2.60;;;6.90;99.90;;;;;;5014410;28;20219;-67
2022/12/27 08:38:41;;;;;;;4.27;2.10;;;7.00;99.90;;;;;;5011072;28;20432;-68
2022/12/27 08:41:06;;;;;;;3.03;2.23;;;7.00;99.90;;;;;;5015801;28;20177;-67
2022/12/27 08:43:32;;;;;;;4.70;2.43;;;7.10;99.90;;;;;;5012063;28;20173;-66
2022/12/27 08:46:04;;;;;;;7.97;2.90;;;7.10;99.90;;;;;;5011337;28;20210;-67
2022/12/27 08:48:32;;;;;;;6.30;2.67;;;7.10;99.90;;;;;;5016836;28;20658;-67
2022/12/27 08:51:03;;;;;;;5.03;2.40;;;7.20;99.90;;;;;;5008841;28;20458;-67
2022/12/27 08:53:29;;;;;;;3.50;2.03;;;7.10;99.90;;;;;;5013879;28;20434;-67
2022/12/27 08:55:55;;;;;;;4.47;2.53;;;7.10;99.90;;;;;;5017540;28;20616;-67
2022/12/27 08:58:22;;;;;;;4.10;2.17;;;7.10;99.90;;;;;;5014718;28;20629;-67
2022/12/27 09:00:47;;;;;;;4.37;2.70;;;7.10;99.90;;;;;;5010844;28;20443;-67
2022/12/27 09:03:16;;;;;;;3.30;2.30;;;7.20;99.90;;;;;;5012783;28;20426;-67
2022/12/27 09:05:42;;;;;;;4.73;2.40;;;7.30;99.90;;;;;;5013828;28;20218;-67
2022/12/27 09:08:08;;;;;;;5.33;2.10;;;7.30;99.90;;;;;;5012732;28;20443;-66
2022/12/27 09:10:33;;;;;;;4.10;2.40;;;7.30;99.90;;;;;;5008609;28;20822;-67
2022/12/27 09:12:59;;;;;;;2.80;1.90;;;7.30;99.90;;;;;;5010100;28;20450;-67
2022/12/27 09:15:24;;;;;;;4.90;2.43;;;7.30;99.90;;;;;;5015254;28;20209;-67
2022/12/27 09:17:50;;;;;;;10.17;3.50;;;7.40;99.90;;;;;;5010728;28;20188;-66
2022/12/27 09:20:16;;;;;;;7.03;2.93;;;7.40;99.90;;;;;;5011216;28;21273;-66
2022/12/27 09:22:41;;;;;;;4.97;2.57;;;7.40;99.90;;;;;;5013272;28;20180;-67
2022/12/27 09:25:07;;;;;;;2.90;2.03;;;7.40;99.90;;;;;;5014910;28;20181;-67
2022/12/27 09:27:37;;;;;;;5.60;2.30;;;7.40;99.90;;;;;;5012526;28;20208;-67
2022/12/27 09:30:04;;;;;;;6.07;2.27;;;7.50;99.90;;;;;;5015976;28;20971;-66
2022/12/27 09:32:30;;;;;;;8.67;3.20;;;7.50;99.90;;;;;;5009774;28;20447;-68
2022/12/27 09:34:56;;;;;;;4.87;2.53;;;7.50;99.90;;;;;;5009400;28;20444;-67
2022/12/27 09:37:21;;;;;;;6.43;2.37;;;7.50;99.90;;;;;;5013292;28;20219;-67
2022/12/27 09:39:47;;;;;;;3.60;2.20;;;7.50;99.90;;;;;;5004348;28;20189;-67
2022/12/27 09:42:45;;;;;;;5.93;2.60;;;7.60;99.90;;;;;;5011005;28;20254;-67
2022/12/27 09:45:19;;;;;;;10.23;2.40;;;7.50;99.90;;;;;;5020974;28;20855;-67
2022/12/27 09:48:23;;;;;;;4.53;2.80;;;7.60;99.90;;;;;;5012279;28;20440;-67
2022/12/27 09:50:53;;;;;;;4.70;2.30;;;7.70;99.90;;;;;;5012351;28;20447;-68
2022/12/27 09:53:51;;;;;;;6.10;3.33;;;7.70;99.90;;;;;;5009549;28;20764;-69
2022/12/27 09:56:26;;;;;;;3.10;2.63;;;7.60;99.90;;;;;;5007383;28;20613;-71
2022/12/27 09:59:01;;;;;;;5.20;2.50;;;7.70;99.90;;;;;;5006274;28;20446;-66
2022/12/27 10:01:32;;;;;;;4.47;2.50;;;7.80;99.90;;;;;;5008547;28;20786;-68
2022/12/27 10:03:59;;;;;;;5.30;2.50;;;7.80;99.90;;;;;;5011818;28;20431;-67
2022/12/27 10:06:45;;;;;;;6.87;3.33;;;7.90;99.90;;;;;;5014817;28;20455;-66
2022/12/27 10:09:41;;;;;;;5.23;2.33;;;7.90;99.90;;;;;;5011575;28;20473;-66
2022/12/27 10:12:33;;;;;;;5.47;3.00;;;7.90;99.90;;;;;;5011635;28;20510;-68
2022/12/27 10:15:14;;;;;;;4.30;2.80;;;7.90;99.90;;;;;;5011261;28;20439;-70
2022/12/27 10:18:08;;;;;;;7.50;3.40;;;8.00;99.90;;;;;;5012779;28;20473;-67
2022/12/27 10:20:49;;;;;;;4.50;3.10;;;8.00;99.90;;;;;;5005811;28;20521;-70
2022/12/27 10:23:31;;;;;;;5.27;2.73;;;8.00;99.90;;;;;;5013167;28;20423;-66
2022/12/27 10:26:00;;;;;;;3.90;2.63;;;8.00;99.90;;;;;;5005531;28;20462;-65
2022/12/27 10:28:37;;;;;;;7.37;3.07;;;8.00;99.90;;;;;;5014408;28;20442;-61
2022/12/27 10:31:04;;;;;;;4.70;2.40;;;8.10;99.90;;;;;;5010049;28;20828;-63
2022/12/27 10:33:34;;;;;;;5.23;2.50;;;8.00;99.90;;;;;;5012821;28;20441;-63
2022/12/27 10:36:07;;;;;;;5.00;2.53;;;8.10;99.90;;;;;;5012666;28;20554;-64
2022/12/27 10:38:33;;;;;;;5.10;2.60;;;8.30;99.90;;;;;;5014019;28;20431;-66
2022/12/27 10:41:23;;;;;;;3.10;2.40;;;8.20;99.90;;;;;;5011663;28;20437;-65
2022/12/27 10:43:53;;;;;;;6.33;2.50;;;8.30;99.90;;;;;;5008884;28;20470;-64
2022/12/27 10:46:28;;;;;;;4.90;3.23;;;8.50;99.90;;;;;;5011795;28;20491;-64
2022/12/27 10:48:58;;;;;;;6.70;2.50;;;8.60;99.90;;;;;;5012382;28;20463;-65
2022/12/27 10:51:32;;;;;;;3.77;2.47;;;8.70;99.90;;;;;;5014839;28;20492;-65
2022/12/27 10:54:09;;;;;;;3.30;2.17;;;8.70;99.90;;;;;;5009986;28;20436;-65
2022/12/27 10:56:40;;;;;;;7.23;2.57;;;8.60;99.90;;;;;;5013646;28;20501;-64
2022/12/27 10:59:09;;;;;;;4.40;2.50;;;8.70;99.90;;;;;;5006467;28;20424;-64
2022/12/27 11:01:35;;;;;;;4.87;2.17;;;8.70;99.90;;;;;;5011096;28;20489;-65
2022/12/27 11:04:10;;;;;;;4.53;2.20;;;8.80;99.90;;;;;;5016607;28;20435;-63
2022/12/27 11:06:36;;;;;;;5.13;3.00;;;8.80;99.90;;;;;;5015559;28;20233;-64
2022/12/27 11:09:34;;;;;;;5.97;2.77;;;8.90;99.90;;;;;;5012885;28;20435;-63
2022/12/27 11:12:27;;;;;;;6.90;2.27;;;8.90;99.90;;;;;;5014788;28;20435;-63
2022/12/27 11:15:00;;;;;;;3.80;2.50;;;9.00;99.90;;;;;;5009298;28;20442;-63
2022/12/27 11:17:34;;;;;;;4.07;2.27;;;9.00;99.90;;;;;;5014123;28;20475;-64
2022/12/27 11:20:06;;;;;;;5.37;2.03;;;9.10;99.90;;;;;;5012925;28;21068;-63
2022/12/27 11:22:32;;;;;;;4.70;1.97;;;9.10;99.90;;;;;;5016608;28;20411;-63
2022/12/27 11:24:59;;;;;;;4.57;2.70;;;9.20;99.90;;;;;;5010886;28;20440;-64
2022/12/27 11:27:29;;;;;;;5.30;2.30;;;9.30;99.90;;;;;;5017690;28;20646;-64
2022/12/27 11:29:57;;;;;;;4.30;2.50;;;9.30;99.90;;;;;;5011667;28;20500;-64
2022/12/27 11:32:23;;;;;;;4.00;2.30;;;9.30;99.90;;;;;;5018707;28;21200;-64
2022/12/27 11:34:52;;;;;;;2.70;2.10;;;9.30;99.90;;;;;;5016982;28;20782;-63
2022/12/27 11:37:21;;;;;;;4.07;2.50;;;9.20;99.90;;;;;;5014970;28;20555;-63
2022/12/27 11:39:50;;;;;;;6.53;2.97;;;9.20;99.90;;;;;;5013202;28;20435;-63
2022/12/27 11:42:39;;;;;;;4.13;3.43;;;9.30;99.90;;;;;;5018240;28;20446;-64
2022/12/27 11:45:13;;;;;;;6.93;2.83;;;9.30;99.90;;;;;;5015423;28;20482;-64
2022/12/27 11:47:44;;;;;;;6.07;2.37;;;9.30;99.90;;;;;;5016129;28;20445;-64
2022/12/27 11:50:26;;;;;;;4.37;2.70;;;9.30;99.90;;;;;;5015818;28;20812;-64
2022/12/27 11:52:58;;;;;;;5.37;2.60;;;9.30;99.90;;;;;;5016860;28;20522;-64
2022/12/27 11:55:51;;;;;;;4.90;2.77;;;9.30;99.90;;;;;;5014266;28;20443;-64
2022/12/27 11:58:34;;;;;;;4.87;2.50;;;9.30;99.90;;;;;;5014288;28;20416;-64
2022/12/27 12:01:38;;;;;;;7.17;2.93;;;9.40;99.90;;;;;;5018836;28;20419;-64
2022/12/27 12:04:35;;;;;;;5.47;2.37;;;9.40;99.90;;;;;;5018498;28;20423;-64
2022/12/27 12:07:38;;;;;;;5.20;2.77;;;9.40;99.90;;;;;;5014119;28;20455;-64
2022/12/27 12:10:41;;;;;;;5.23;2.57;;;9.50;99.90;;;;;;5013509;28;20539;-64
2022/12/27 12:13:45;;;;;;;5.83;3.00;;;9.50;99.90;;;;;;5016154;28;20611;-64
2022/12/27 12:16:32;;;;;;;15.70;2.80;;;9.60;99.90;;;;;;5012530;28;20470;-64
2022/12/27 12:19:11;;;;;;;11.50;4.23;;;9.70;99.90;;;;;;5013213;28;20419;-64
2022/12/27 12:21:58;;;;;;;4.07;2.50;;;9.60;99.90;;;;;;5014162;28;20971;-64
2022/12/27 12:24:42;;;;;;;5.67;2.80;;;9.80;99.90;;;;;;5013698;28;20439;-64
2022/12/27 12:27:23;;;;;;;7.90;4.00;;;9.90;99.90;;;;;;5012828;28;20463;-64
2022/12/27 12:30:35;;;;;;;5.23;3.00;;;10.00;99.90;;;;;;5015724;28;20476;-64
2022/12/27 12:33:17;;;;;;;3.80;2.40;;;10.30;99.90;;;;;;4993023;28;20939;-64
2022/12/27 12:36:06;;;;;;;4.93;2.60;;;10.40;99.90;;;;;;5015742;28;20574;-64
2022/12/27 12:38:57;;;;;;;4.97;2.87;;;10.70;99.90;;;;;;5015419;28;20442;-64
2022/12/27 12:41:51;;;;;;;6.63;2.80;;;10.80;99.90;;;;;;5015168;28;20995;-64
2022/12/27 12:44:46;;;;;;;3.77;2.10;;;10.80;99.90;;;;;;5016933;28;20458;-64
2022/12/27 12:47:32;;;;;;;7.37;3.67;;;10.80;99.90;;;;;;5018268;28;20435;-64
2022/12/27 12:50:27;;;;;;;2.90;2.40;;;10.80;99.90;;;;;;5015251;28;20451;-65
2022/12/27 12:53:04;;;;;;;3.73;2.17;;;10.70;99.90;;;;;;5015407;28;20472;-64
2022/12/27 12:55:30;;;;;;;4.73;2.47;;;10.70;99.90;;;;;;5015755;28;20986;-64
2022/12/27 12:58:06;;;;;;;5.13;2.43;;;10.80;99.90;;;;;;5014753;28;20439;-64
2022/12/27 13:00:49;;;;;;;2.90;2.70;;;10.70;99.90;;;;;;5014074;28;20188;-64
2022/12/27 13:03:27;;;;;;;5.07;2.20;;;10.70;99.90;;;;;;5014427;28;20449;-64
2022/12/27 13:06:17;;;;;;;3.80;2.37;;;10.60;99.90;;;;;;5016498;28;20447;-64
2022/12/27 13:08:51;;;;;;;6.33;2.63;;;10.60;99.90;;;;;;5010737;28;20443;-64
2022/12/27 13:11:46;;;;;;;4.73;2.77;;;10.50;99.90;;;;;;5014297;28;20446;-64
2022/12/27 13:14:21;;;;;;;3.83;2.10;;;10.60;99.90;;;;;;5014837;28;20951;-64
2022/12/27 13:17:08;;;;;;;4.70;2.40;;;10.50;99.90;;;;;;5018105;28;20829;-64
2022/12/27 13:19:58;;;;;;;3.80;2.20;;;10.60;99.90;;;;;;5016009;28;20458;-64
2022/12/27 13:22:58;;;;;;;5.83;2.53;;;10.70;99.90;;;;;;5016401;28;20859;-65
2022/12/27 13:25:40;;;;;;;3.33;2.43;;;10.80;99.90;;;;;;5017641;28;20451;-64
2022/12/27 13:28:41;;;;;;;5.27;2.50;;;10.90;99.90;;;;;;5013679;28;20428;-64
2022/12/27 13:31:27;;;;;;;7.47;2.00;;;11.00;99.90;;;;;;5016376;28;20887;-64
2022/12/27 13:34:31;;;;;;;9.23;2.23;;;11.00;99.90;;;;;;5015374;28;20426;-64
2022/12/27 13:37:00;;;;;;;4.07;2.20;;;10.90;99.90;;;;;;5017043;28;20478;-64
2022/12/27 13:39:59;;;;;;;5.40;2.70;;;10.90;99.90;;;;;;5010964;28;20442;-64
2022/12/27 13:42:46;;;;;;;5.77;2.30;;;11.00;99.90;;;;;;5013086;28;20472;-64
2022/12/27 13:45:30;;;;;;;6.73;2.20;;;10.90;99.90;;;;;;5017086;28;20446;-64
2022/12/27 13:48:26;;;;;;;5.17;2.43;;;10.90;99.90;;;;;;5016622;28;20785;-64
2022/12/27 13:51:03;;;;;;;5.73;1.90;;;10.80;99.90;;;;;;5016656;28;20450;-64
2022/12/27 13:53:31;;;;;;;3.40;1.90;;;10.90;99.90;;;;;;5016522;28;20527;-64
2022/12/27 13:56:14;;;;;;;6.23;2.13;;;10.80;99.90;;;;;;5017422;28;20562;-64
2022/12/27 13:59:08;;;;;;;4.40;1.90;;;10.80;99.90;;;;;;5013917;28;20424;-64
2022/12/27 14:02:21;;;;;;;7.00;2.70;;;10.80;99.90;;;;;;5015856;28;20982;-64
2022/12/27 14:05:10;;;;;;;6.90;1.97;;;10.80;99.90;;;;;;5015469;28;20412;-64
2022/12/27 14:07:48;;;;;;;7.70;2.20;;;10.80;99.90;;;;;;5016268;28;20501;-64
2022/12/27 14:10:36;;;;;;;6.50;2.00;;;10.70;99.90;;;;;;5016265;28;20452;-65
2022/12/27 14:13:09;;;;;;;4.73;2.63;;;10.70;99.90;;;;;;5013898;28;20442;-64
2022/12/27 14:16:11;;;;;;;2.70;1.80;;;10.70;99.90;;;;;;5016448;28;20469;-63
2022/12/27 14:19:10;;;;;;;3.53;2.00;;;10.60;99.90;;;;;;5020674;28;20419;-64
2022/12/27 14:21:48;;;;;;;8.37;2.40;;;10.50;99.90;;;;;;5013468;28;20523;-64
2022/12/27 14:24:26;;;;;;;5.80;1.97;;;10.50;99.90;;;;;;5021161;28;20442;-64
2022/12/27 14:27:39;;;;;;;3.90;1.97;;;10.50;99.90;;;;;;5018997;28;20753;-65
2022/12/27 14:30:35;;;;;;;4.50;2.80;;;10.50;99.90;;;;;;5025396;28;20442;-64
2022/12/27 14:33:22;;;;;;;6.40;2.40;;;10.40;99.90;;;;;;5024921;28;20902;-64
2022/12/27 14:36:26;;;;;;;8.10;3.60;;;10.40;99.90;;;;;;5020940;28;20470;-64
2022/12/27 14:39:17;;;;;;;6.17;2.13;;;10.40;99.90;;;;;;5014261;28;20892;-64
2022/12/27 14:42:09;;;;;;;5.50;2.13;;;10.40;99.90;;;;;;5016738;28;20469;-63
2022/12/27 14:45:08;;;;;;;5.10;2.50;;;10.30;99.90;;;;;;5018170;28;20407;-64
2022/12/27 14:47:45;;;;;;;6.67;2.40;;;10.30;99.90;;;;;;5019148;28;20464;-64
2022/12/27 14:50:32;;;;;;;5.00;2.57;;;10.20;99.90;;;;;;5023176;28;20541;-64
2022/12/27 14:53:16;;;;;;;5.70;2.40;;;10.30;99.90;;;;;;5019523;28;20451;-64
2022/12/27 14:55:54;;;;;;;2.97;2.20;;;10.20;99.90;;;;;;5018689;28;20474;-64
2022/12/27 14:58:36;;;;;;;3.60;2.47;;;10.20;99.90;;;;;;5023572;28;20418;-64
2022/12/27 15:01:11;;;;;;;5.60;2.97;;;10.20;99.90;;;;;;5019408;28;20808;-63
2022/12/27 15:03:48;;;;;;;6.17;2.77;;;10.30;99.90;;;;;;5016423;28;20797;-64
2022/12/27 15:06:28;;;;;;;5.67;2.70;;;10.30;99.90;;;;;;5019841;28;20604;-64
2022/12/27 15:08:57;;;;;;;5.57;2.90;;;10.30;99.90;;;;;;5021412;28;20471;-64
2022/12/27 15:11:33;;;;;;;6.97;2.73;;;10.30;99.90;;;;;;5018123;28;20435;-64